Time;durP1;ratioP1;P1;durP2;ratioP2;P2;SDS_P1;SDS_P2;PMS_P1;PMS_P2;Temp;Humidity;BMP_temperature;BMP_pressure;BME280_temperature;BME280_humidity;BME280_pressure;Samples;Min_cycle;Max_cycle;Signal;HPM_P1;HPM_P2
2022/02/23 00:02:23;;;;;;;23.02;3.58;;;6.70;84.90;;;;;;9182020;19;20022;-68
2022/02/23 00:05:29;;;;;;;26.15;3.45;;;6.70;84.90;;;;;;9181041;19;20082;-65
2022/02/23 00:08:36;;;;;;;20.15;2.63;;;6.70;84.90;;;;;;9180023;19;20471;-65
2022/02/23 00:11:41;;;;;;;24.27;3.47;;;6.70;84.90;;;;;;9183224;19;20059;-62
2022/02/23 00:14:46;;;;;;;24.25;3.00;;;6.70;84.90;;;;;;9180016;19;20497;-63
2022/02/23 00:17:53;;;;;;;19.63;2.88;;;6.70;85.00;;;;;;9182022;19;20014;-63
2022/02/23 00:20:58;;;;;;;21.70;3.50;;;6.70;85.00;;;;;;9181629;19;20357;-63
2022/02/23 00:24:06;;;;;;;22.60;2.53;;;6.60;84.90;;;;;;9182327;19;20021;-64
2022/02/23 00:27:11;;;;;;;18.95;2.95;;;6.60;85.00;;;;;;9177193;19;20021;-65
2022/02/23 00:30:16;;;;;;;29.67;3.22;;;6.60;85.00;;;;;;9185442;19;20051;-63
2022/02/23 00:33:21;;;;;;;15.48;2.67;;;6.60;85.00;;;;;;9180818;19;20014;-64
2022/02/23 00:36:26;;;;;;;13.80;2.47;;;6.60;85.00;;;;;;9180835;19;20664;-62
2022/02/23 00:39:34;;;;;;;16.73;2.85;;;6.60;85.10;;;;;;9180023;19;20022;-65
2022/02/23 00:42:39;;;;;;;20.65;3.97;;;6.60;85.10;;;;;;9181929;19;20010;-63
2022/02/23 00:45:44;;;;;;;21.95;3.45;;;6.60;85.10;;;;;;9183436;19;20015;-64
2022/02/23 00:48:49;;;;;;;27.13;2.92;;;6.50;85.00;;;;;;9178963;19;20010;-64
2022/02/23 00:51:54;;;;;;;31.98;3.22;;;6.50;85.00;;;;;;9177108;19;20625;-65
2022/02/23 00:55:02;;;;;;;19.38;3.92;;;6.50;85.00;;;;;;9178955;19;20018;-65
2022/02/23 00:58:07;;;;;;;18.60;3.00;;;6.50;85.00;;;;;;9181500;19;20122;-61
2022/02/23 01:01:12;;;;;;;19.60;2.92;;;6.50;85.00;;;;;;9180785;19;20042;-64
2022/02/23 01:04:17;;;;;;;19.27;3.15;;;6.50;85.10;;;;;;9176521;19;20019;-64
2022/02/23 01:07:22;;;;;;;21.65;4.95;;;6.50;85.10;;;;;;9177434;19;20010;-62
2022/02/23 01:10:29;;;;;;;22.20;3.47;;;6.50;85.10;;;;;;9177680;19;20484;-64
2022/02/23 01:13:35;;;;;;;28.45;3.55;;;6.50;85.10;;;;;;9179369;19;20014;-62
2022/02/23 01:16:40;;;;;;;22.65;4.05;;;6.50;85.10;;;;;;9180113;19;20023;-62
2022/02/23 01:19:45;;;;;;;23.83;3.63;;;6.50;85.10;;;;;;9178326;19;20017;-64
2022/02/23 01:22:52;;;;;;;29.75;4.22;;;6.40;85.00;;;;;;9180608;19;20029;-62
2022/02/23 01:25:59;;;;;;;18.70;3.03;;;6.40;85.10;;;;;;9172582;19;20026;-63
2022/02/23 01:29:04;;;;;;;22.83;3.60;;;6.40;85.10;;;;;;9179357;19;20022;-66
2022/02/23 01:32:10;;;;;;;21.48;3.40;;;6.40;85.10;;;;;;9179638;19;20026;-64
2022/02/23 01:35:16;;;;;;;21.10;3.58;;;6.40;85.10;;;;;;9175967;19;20025;-62
2022/02/23 01:38:22;;;;;;;23.02;3.00;;;6.40;85.10;;;;;;9177065;19;20011;-63
2022/02/23 01:41:29;;;;;;;26.30;3.92;;;6.40;85.10;;;;;;9177272;19;20027;-65
2022/02/23 01:44:34;;;;;;;31.63;4.32;;;6.40;85.10;;;;;;9178793;19;20025;-65
2022/02/23 01:47:39;;;;;;;24.40;4.15;;;6.30;85.00;;;;;;9180310;19;20043;-63
2022/02/23 01:50:49;;;;;;;31.52;4.25;;;6.30;85.00;;;;;;9176326;19;20010;-67
2022/02/23 01:53:54;;;;;;;35.85;3.17;;;6.30;85.00;;;;;;9176415;19;20484;-63
2022/02/23 01:57:02;;;;;;;21.58;3.55;;;6.30;85.00;;;;;;9176248;19;20029;-63
2022/02/23 02:00:10;;;;;;;28.63;3.83;;;6.30;85.00;;;;;;9178066;19;20014;-63
2022/02/23 02:03:15;;;;;;;26.98;3.35;;;6.30;85.10;;;;;;9175407;19;20019;-65
2022/02/23 02:06:20;;;;;;;17.27;2.88;;;6.30;85.10;;;;;;9175303;19;20033;-63
2022/02/23 02:09:25;;;;;;;27.95;3.63;;;6.20;85.00;;;;;;9177477;19;20049;-63
2022/02/23 02:12:32;;;;;;;24.10;3.22;;;6.20;85.00;;;;;;9178895;19;20022;-64
2022/02/23 02:15:38;;;;;;;31.52;3.88;;;6.20;85.00;;;;;;9177080;19;20044;-63
2022/02/23 02:18:43;;;;;;;19.60;4.22;;;6.20;85.00;;;;;;9175961;19;20464;-63
2022/02/23 02:21:58;;;;;;;33.72;3.78;;;6.20;85.00;;;;;;9174664;19;20019;-63
2022/02/23 02:25:04;;;;;;;15.88;4.28;;;6.10;84.90;;;;;;9175997;19;20019;-63
2022/02/23 02:28:09;;;;;;;23.77;3.72;;;6.10;85.00;;;;;;9172715;19;20022;-65
2022/02/23 02:31:14;;;;;;;17.63;4.05;;;6.10;84.90;;;;;;9176680;19;20026;-64
2022/02/23 02:34:19;;;;;;;24.58;3.80;;;6.10;85.00;;;;;;9176240;19;20011;-62
2022/02/23 02:37:26;;;;;;;21.67;3.45;;;6.00;85.00;;;;;;9181810;19;20022;-62
2022/02/23 02:40:32;;;;;;;33.60;3.55;;;6.00;85.00;;;;;;9185230;19;20018;-63
2022/02/23 02:43:37;;;;;;;29.40;3.63;;;6.00;85.00;;;;;;9186869;19;20019;-63
2022/02/23 02:46:43;;;;;;;23.88;3.72;;;6.00;85.00;;;;;;9182608;19;20029;-64
2022/02/23 02:49:48;;;;;;;31.48;4.72;;;6.00;85.10;;;;;;9184187;19;20037;-63
2022/02/23 02:52:55;;;;;;;30.63;4.63;;;6.00;85.10;;;;;;9184094;19;20022;-63
2022/02/23 02:56:01;;;;;;;29.10;3.25;;;6.00;85.10;;;;;;9185904;19;20006;-62
2022/02/23 02:59:07;;;;;;;17.40;3.55;;;5.90;85.00;;;;;;9181425;19;20018;-64
2022/02/23 03:02:12;;;;;;;25.70;4.35;;;5.90;85.10;;;;;;9180583;19;20022;-62
2022/02/23 03:05:17;;;;;;;30.85;4.38;;;5.90;85.10;;;;;;9184855;19;20042;-63
2022/02/23 03:08:24;;;;;;;29.58;5.05;;;5.90;85.10;;;;;;9184308;19;20028;-65
2022/02/23 03:11:29;;;;;;;19.10;4.15;;;5.90;85.10;;;;;;9185744;19;20010;-64
2022/02/23 03:14:34;;;;;;;28.52;4.30;;;5.90;85.10;;;;;;9182530;19;20017;-62
2022/02/23 03:17:39;;;;;;;30.48;3.67;;;5.90;85.10;;;;;;9183306;19;20039;-63
2022/02/23 03:20:44;;;;;;;35.92;4.38;;;5.90;85.10;;;;;;9184332;19;20048;-63
2022/02/23 03:23:52;;;;;;;17.58;3.15;;;5.90;85.20;;;;;;9183967;19;20048;-64
2022/02/23 03:26:57;;;;;;;27.38;4.18;;;5.80;85.20;;;;;;9180225;19;20015;-63
2022/02/23 03:30:02;;;;;;;17.15;3.15;;;5.80;85.10;;;;;;9180468;19;20023;-64
2022/02/23 03:33:09;;;;;;;34.95;3.80;;;5.80;85.20;;;;;;9183273;19;20017;-63
2022/02/23 03:36:16;;;;;;;22.60;3.38;;;5.80;85.10;;;;;;9181430;19;20025;-62
2022/02/23 03:39:23;;;;;;;27.98;4.13;;;5.80;85.10;;;;;;9185348;19;20021;-65
2022/02/23 03:42:28;;;;;;;27.73;3.85;;;5.80;85.10;;;;;;9183728;19;20029;-64
2022/02/23 03:45:33;;;;;;;22.48;2.88;;;5.80;85.10;;;;;;9180902;19;20777;-63
2022/02/23 03:48:39;;;;;;;26.75;4.75;;;5.80;85.10;;;;;;9179016;19;20361;-62
2022/02/23 03:51:44;;;;;;;30.10;3.55;;;5.80;85.10;;;;;;9182165;19;20019;-63
2022/02/23 03:54:52;;;;;;;20.17;3.20;;;5.70;85.00;;;;;;9182532;19;20024;-62
2022/02/23 03:57:57;;;;;;;24.92;4.43;;;5.70;85.00;;;;;;9182388;19;20025;-64
2022/02/23 04:01:02;;;;;;;30.23;4.47;;;5.70;85.00;;;;;;9180802;19;20481;-63
2022/02/23 04:04:09;;;;;;;19.75;3.10;;;5.70;85.00;;;;;;9182500;19;20380;-62
2022/02/23 04:07:14;;;;;;;26.25;4.32;;;5.70;85.00;;;;;;9182339;19;20460;-63
2022/02/23 04:10:23;;;;;;;30.40;4.72;;;5.70;85.00;;;;;;9181656;19;20025;-65
2022/02/23 04:13:28;;;;;;;28.20;4.60;;;5.60;84.90;;;;;;9181419;19;20222;-63
2022/02/23 04:16:33;;;;;;;23.33;3.30;;;5.60;85.00;;;;;;9179086;19;20028;-62
2022/02/23 04:19:38;;;;;;;21.17;3.05;;;5.60;85.00;;;;;;9181342;19;20023;-62
2022/02/23 04:22:45;;;;;;;31.25;4.63;;;5.60;85.00;;;;;;9183865;19;20819;-67
2022/02/23 04:25:52;;;;;;;30.48;4.32;;;5.60;85.10;;;;;;9178200;19;20011;-63
2022/02/23 04:28:57;;;;;;;28.27;3.35;;;5.50;85.00;;;;;;9180094;19;20369;-63
2022/02/23 04:32:02;;;;;;;25.50;3.60;;;5.50;85.00;;;;;;9178766;19;20019;-63
2022/02/23 04:35:08;;;;;;;22.25;4.10;;;5.50;85.10;;;;;;9178434;19;20019;-62
2022/02/23 04:38:13;;;;;;;27.05;4.55;;;5.40;85.00;;;;;;9180797;19;20019;-64
2022/02/23 04:41:21;;;;;;;21.30;2.97;;;5.50;85.00;;;;;;9183019;19;20051;-63
2022/02/23 04:44:26;;;;;;;16.35;3.15;;;5.40;85.00;;;;;;9179520;19;20503;-63
2022/02/23 04:47:32;;;;;;;19.08;3.80;;;5.40;84.90;;;;;;9178757;19;20022;-62
2022/02/23 04:50:38;;;;;;;28.30;3.38;;;5.40;85.00;;;;;;9179753;19;20037;-62
2022/02/23 04:53:43;;;;;;;21.73;4.55;;;5.40;85.00;;;;;;9179651;19;20030;-62
2022/02/23 04:56:51;;;;;;;26.50;4.35;;;5.40;85.00;;;;;;9180875;19;20029;-62
2022/02/23 04:59:56;;;;;;;18.02;2.70;;;5.30;85.00;;;;;;9177838;19;20131;-62
2022/02/23 05:03:01;;;;;;;18.50;2.97;;;5.30;85.00;;;;;;9177922;19;20134;-65
2022/02/23 05:06:07;;;;;;;20.65;3.17;;;5.30;85.10;;;;;;9180654;19;20018;-63
2022/02/23 05:09:12;;;;;;;23.33;2.70;;;5.30;85.10;;;;;;9180328;19;20022;-65
2022/02/23 05:12:20;;;;;;;19.35;3.17;;;5.20;85.00;;;;;;9180159;19;20307;-62
2022/02/23 05:15:25;;;;;;;25.23;2.92;;;5.30;85.10;;;;;;9179227;19;20010;-63
2022/02/23 05:18:32;;;;;;;20.20;3.17;;;5.20;85.10;;;;;;9178848;19;20035;-63
2022/02/23 05:21:40;;;;;;;19.92;2.97;;;5.20;85.20;;;;;;9179442;19;20018;-63
2022/02/23 05:24:50;;;;;;;25.25;3.60;;;5.20;85.20;;;;;;9180138;19;20099;-64
2022/02/23 05:27:58;;;;;;;19.83;4.25;;;5.20;85.10;;;;;;9174846;19;20022;-64
2022/02/23 05:31:03;;;;;;;19.83;3.50;;;5.10;85.10;;;;;;9177681;19;20026;-63
2022/02/23 05:34:08;;;;;;;25.50;4.53;;;5.20;85.10;;;;;;9175842;19;20438;-65
2022/02/23 05:37:14;;;;;;;24.98;2.95;;;5.10;85.10;;;;;;9177500;19;20361;-63
2022/02/23 05:40:20;;;;;;;13.48;3.05;;;5.10;85.10;;;;;;9179854;19;20029;-66
2022/02/23 05:43:28;;;;;;;16.38;2.92;;;5.10;85.10;;;;;;9179027;19;20014;-63
2022/02/23 05:46:33;;;;;;;23.67;3.38;;;5.10;85.80;;;;;;9175040;19;20336;-64
2022/02/23 05:49:38;;;;;;;21.73;3.75;;;5.10;85.10;;;;;;9178646;19;20018;-64
2022/02/23 05:52:44;;;;;;;24.20;3.15;;;5.10;85.10;;;;;;9178966;19;20022;-63
2022/02/23 05:55:49;;;;;;;19.17;3.03;;;5.10;85.20;;;;;;9177241;19;20010;-63
2022/02/23 05:58:58;;;;;;;17.75;3.85;;;5.00;85.10;;;;;;9180122;19;20022;-62
2022/02/23 06:02:03;;;;;;;16.60;3.67;;;5.00;85.10;;;;;;9176241;19;20022;-64
2022/02/23 06:05:09;;;;;;;24.58;3.67;;;5.00;85.10;;;;;;9178745;19;20018;-64
2022/02/23 06:08:14;;;;;;;26.67;3.88;;;5.00;85.10;;;;;;9176288;19;20057;-63
2022/02/23 06:11:19;;;;;;;14.40;2.92;;;5.00;85.20;;;;;;9175918;19;20025;-63
2022/02/23 06:14:28;;;;;;;24.70;3.65;;;5.00;85.20;;;;;;9178337;19;20014;-64
2022/02/23 06:17:33;;;;;;;17.00;3.17;;;5.00;85.20;;;;;;9175462;19;20026;-64
2022/02/23 06:20:38;;;;;;;19.70;2.97;;;5.00;85.20;;;;;;9174575;19;20021;-62
2022/02/23 06:23:45;;;;;;;23.85;4.00;;;4.90;85.20;;;;;;9177513;19;20018;-63
2022/02/23 06:26:51;;;;;;;18.42;3.53;;;4.90;85.20;;;;;;9173239;19;20070;-63
2022/02/23 06:30:01;;;;;;;21.15;3.05;;;4.90;85.20;;;;;;9176217;19;20026;-63
2022/02/23 06:33:06;;;;;;;25.25;3.83;;;4.90;85.20;;;;;;9176273;19;20023;-64
2022/02/23 06:36:12;;;;;;;32.45;4.97;;;4.90;85.20;;;;;;9174766;19;20014;-64
2022/02/23 06:39:17;;;;;;;24.70;3.35;;;4.90;85.30;;;;;;9175155;19;20373;-62
2022/02/23 06:42:23;;;;;;;30.63;4.28;;;4.80;85.30;;;;;;9176509;19;20648;-62
2022/02/23 06:45:31;;;;;;;18.10;2.88;;;4.80;85.30;;;;;;9175197;19;20052;-64
2022/02/23 06:48:36;;;;;;;24.95;4.55;;;4.80;85.30;;;;;;9173129;19;20018;-63
2022/02/23 06:51:42;;;;;;;18.60;2.88;;;4.80;85.40;;;;;;9176229;19;20392;-62
2022/02/23 06:54:47;;;;;;;25.90;3.17;;;4.80;85.40;;;;;;9176918;19;20483;-66
2022/02/23 06:57:52;;;;;;;16.23;2.78;;;4.80;85.40;;;;;;9176788;19;20038;-63
2022/02/23 07:01:00;;;;;;;28.63;3.55;;;4.80;85.50;;;;;;9172007;19;20030;-66
2022/02/23 07:04:08;;;;;;;22.80;3.38;;;4.80;85.40;;;;;;9174608;19;20022;-63
2022/02/23 07:07:13;;;;;;;23.23;3.58;;;4.80;85.40;;;;;;9173221;19;20023;-65
2022/02/23 07:10:26;;;;;;;29.58;3.33;;;4.80;85.50;;;;;;9172999;19;20018;-64
2022/02/23 07:13:31;;;;;;;20.00;2.92;;;4.80;85.50;;;;;;9176385;19;20464;-65
2022/02/23 07:16:39;;;;;;;17.58;3.42;;;4.80;86.10;;;;;;9170196;19;20022;-62
2022/02/23 07:19:44;;;;;;;21.23;2.85;;;4.80;85.50;;;;;;9167710;19;20010;-62
2022/02/23 07:22:49;;;;;;;19.88;3.00;;;4.90;85.60;;;;;;9165911;19;20031;-66
2022/02/23 07:25:55;;;;;;;17.67;2.63;;;4.90;85.60;;;;;;9173883;19;20399;-62
2022/02/23 07:29:00;;;;;;;24.48;3.08;;;4.90;85.70;;;;;;9176417;19;20844;-64
2022/02/23 07:32:09;;;;;;;28.33;4.97;;;4.90;85.70;;;;;;9167986;19;20555;-64
2022/02/23 07:35:16;;;;;;;22.42;2.85;;;4.90;85.80;;;;;;9172542;19;20010;-65
2022/02/23 07:38:21;;;;;;;21.15;2.88;;;4.90;86.40;;;;;;9180724;19;20017;-63
2022/02/23 07:41:26;;;;;;;24.67;4.50;;;5.00;85.90;;;;;;9176798;19;20014;-63
2022/02/23 07:44:51;;;;;;;14.18;2.92;;;5.00;85.90;;;;;;9181766;19;20476;-64
2022/02/23 07:47:58;;;;;;;18.73;3.60;;;5.10;86.00;;;;;;9181974;19;20647;-63
2022/02/23 07:51:04;;;;;;;28.35;4.65;;;5.20;86.20;;;;;;9176948;19;20093;-64
2022/02/23 07:54:09;;;;;;;16.30;2.67;;;5.20;86.30;;;;;;9178646;19;20015;-65
2022/02/23 07:57:14;;;;;;;27.50;4.68;;;5.30;86.30;;;;;;9181597;19;20019;-65
2022/02/23 08:00:22;;;;;;;40.65;5.43;;;5.40;86.30;;;;;;9179042;19;20018;-63
2022/02/23 08:03:31;;;;;;;31.70;3.55;;;5.50;86.50;;;;;;9180125;19;20214;-66
2022/02/23 08:06:38;;;;;;;33.95;3.47;;;5.60;86.60;;;;;;9176059;19;20018;-64
2022/02/23 08:09:43;;;;;;;20.80;3.75;;;5.70;86.60;;;;;;9176313;19;20014;-63
2022/02/23 08:12:50;;;;;;;20.63;3.88;;;5.90;86.80;;;;;;9178320;19;20018;-63
2022/02/23 08:22:33;;;;;;;20.38;3.47;;;6.30;86.90;;;;;;9179621;19;20014;-64
2022/02/23 08:25:39;;;;;;;23.77;3.67;;;6.50;86.90;;;;;;9180483;19;20006;-64
2022/02/23 08:28:44;;;;;;;30.23;5.00;;;6.60;86.80;;;;;;9175672;19;20015;-64
2022/02/23 08:31:49;;;;;;;19.95;3.45;;;6.80;86.90;;;;;;9180286;19;20525;-67
2022/02/23 08:34:57;;;;;;;23.48;3.85;;;7.00;86.90;;;;;;9178268;19;20018;-64
2022/02/23 08:38:02;;;;;;;24.30;3.78;;;7.20;86.90;;;;;;9176002;19;20018;-64
2022/02/23 08:41:07;;;;;;;14.35;3.55;;;7.40;86.90;;;;;;9173703;19;20018;-64
2022/02/23 08:44:12;;;;;;;16.38;3.00;;;7.50;86.90;;;;;;9167447;19;20022;-65
2022/02/23 08:47:18;;;;;;;19.00;3.20;;;7.70;86.70;;;;;;9170323;19;20022;-63
2022/02/23 08:50:26;;;;;;;20.48;3.88;;;7.90;86.70;;;;;;9172436;19;20067;-61
2022/02/23 08:53:31;;;;;;;13.95;2.70;;;8.10;86.70;;;;;;9170121;19;20042;-61
2022/02/23 08:56:36;;;;;;;33.92;4.32;;;8.30;86.70;;;;;;9171577;19;20107;-63
2022/02/23 08:59:41;;;;;;;19.90;3.58;;;8.40;86.60;;;;;;9170259;19;20018;-62
2022/02/23 09:02:49;;;;;;;17.38;3.55;;;8.60;86.60;;;;;;9173476;19;20452;-61
2022/02/23 09:05:56;;;;;;;17.27;3.75;;;8.80;86.60;;;;;;9173500;19;20022;-61
2022/02/23 09:09:01;;;;;;;22.10;3.97;;;9.00;86.60;;;;;;9168498;19;20018;-61
2022/02/23 09:12:07;;;;;;;14.63;3.10;;;9.30;86.70;;;;;;9169584;19;20011;-61
2022/02/23 09:15:12;;;;;;;14.80;3.28;;;9.50;86.70;;;;;;9172424;19;20018;-62
2022/02/23 09:18:18;;;;;;;15.95;3.30;;;9.80;86.50;;;;;;9170793;19;20086;-61
2022/02/23 09:21:25;;;;;;;18.05;3.63;;;10.00;86.30;;;;;;9172301;19;20014;-59
2022/02/23 09:24:30;;;;;;;14.18;3.17;;;10.30;86.10;;;;;;9169296;19;20018;-60
2022/02/23 09:27:39;;;;;;;14.48;2.33;;;10.50;85.90;;;;;;9166578;19;20022;-59
2022/02/23 09:30:44;;;;;;;14.95;2.95;;;10.70;85.70;;;;;;9169302;19;20019;-61
2022/02/23 09:33:51;;;;;;;29.30;3.92;;;10.90;85.50;;;;;;9175292;19;20083;-61
2022/02/23 09:36:59;;;;;;;12.15;3.25;;;11.10;85.40;;;;;;9175433;19;20108;-62
2022/02/23 09:40:05;;;;;;;21.25;3.20;;;11.30;85.00;;;;;;9173831;19;20876;-64
2022/02/23 09:43:11;;;;;;;17.67;3.97;;;11.50;84.80;;;;;;9170612;19;20114;-61
2022/02/23 09:46:20;;;;;;;16.08;3.65;;;11.70;84.70;;;;;;9172797;19;20022;-63
2022/02/23 09:49:25;;;;;;;17.08;3.30;;;11.80;84.30;;;;;;9171873;19;20029;-64
2022/02/23 09:52:33;;;;;;;16.40;2.60;;;12.00;84.30;;;;;;9174374;19;20374;-61
2022/02/23 09:55:38;;;;;;;11.27;2.47;;;12.20;83.90;;;;;;9172348;19;20006;-60
2022/02/23 09:58:44;;;;;;;12.43;2.35;;;12.40;83.60;;;;;;9169970;19;20022;-59
2022/02/23 10:01:50;;;;;;;12.38;3.05;;;12.50;83.30;;;;;;9174047;19;20032;-60
2022/02/23 10:04:55;;;;;;;12.00;2.05;;;12.60;83.00;;;;;;9171577;19;20594;-61
2022/02/23 10:08:09;;;;;;;19.98;3.13;;;12.80;82.90;;;;;;9169347;19;20025;-60
2022/02/23 10:11:34;;;;;;;16.35;3.92;;;12.90;82.50;;;;;;9174372;19;20015;-60
2022/02/23 10:14:40;;;;;;;12.93;2.50;;;13.00;82.60;;;;;;9175407;19;20026;-62
2022/02/23 10:17:47;;;;;;;9.75;2.28;;;13.20;82.40;;;;;;9175630;19;20043;-60
2022/02/23 10:20:53;;;;;;;15.68;2.58;;;13.30;82.10;;;;;;9176231;19;20015;-60
2022/02/23 10:24:23;;;;;;;14.45;3.10;;;13.40;81.90;;;;;;9176391;19;20380;-60
2022/02/23 10:27:37;;;;;;;15.43;2.85;;;13.50;81.50;;;;;;9170977;19;20011;-60
2022/02/23 10:30:51;;;;;;;19.00;2.72;;;13.70;81.50;;;;;;9174209;19;20010;-60
2022/02/23 10:33:56;;;;;;;15.32;2.70;;;13.80;81.20;;;;;;9173656;19;20025;-60
2022/02/23 10:37:05;;;;;;;14.52;2.63;;;14.00;81.20;;;;;;9176408;19;20025;-60
2022/02/23 10:40:14;;;;;;;13.00;2.88;;;14.10;80.90;;;;;;9173704;19;20022;-60
2022/02/23 10:43:31;;;;;;;10.00;2.38;;;14.20;80.60;;;;;;9177393;19;20037;-60
2022/02/23 10:46:37;;;;;;;11.13;2.03;;;14.30;80.00;;;;;;9172165;19;20603;-60
2022/02/23 10:49:42;;;;;;;12.90;2.65;;;14.40;80.10;;;;;;9174536;19;20033;-60
2022/02/23 10:52:55;;;;;;;15.70;2.42;;;14.40;79.90;;;;;;9174528;19;20021;-60
2022/02/23 10:56:04;;;;;;;7.93;2.40;;;14.50;79.60;;;;;;9175697;19;20480;-59
2022/02/23 10:59:11;;;;;;;12.73;2.22;;;14.60;79.50;;;;;;9183697;19;20025;-59
2022/02/23 11:02:16;;;;;;;11.30;2.15;;;14.60;79.10;;;;;;9180914;19;20022;-59
2022/02/23 11:05:23;;;;;;;9.18;2.20;;;14.70;78.70;;;;;;9182385;19;20523;-59
2022/02/23 11:08:29;;;;;;;13.57;2.50;;;14.70;78.40;;;;;;9184153;19;20018;-60
2022/02/23 11:11:37;;;;;;;7.20;1.80;;;14.60;78.10;;;;;;9183604;19;20019;-60
2022/02/23 11:14:44;;;;;;;14.27;2.17;;;14.70;78.20;;;;;;9185411;19;20021;-61
2022/02/23 11:17:52;;;;;;;4.93;2.20;;;14.80;78.30;;;;;;9180246;19;20502;-59
2022/02/23 11:20:59;;;;;;;11.35;1.70;;;14.80;78.20;;;;;;9181095;19;20010;-59
2022/02/23 11:24:07;;;;;;;10.88;2.17;;;14.80;77.70;;;;;;9181146;19;20026;-60
2022/02/23 11:27:21;;;;;;;7.57;1.73;;;14.80;77.40;;;;;;9180196;19;20007;-60
2022/02/23 11:30:30;;;;;;;8.43;2.20;;;14.80;77.10;;;;;;9184925;19;20080;-61
2022/02/23 11:33:55;;;;;;;12.52;2.10;;;14.80;77.10;;;;;;9183841;19;20106;-60
2022/02/23 11:37:00;;;;;;;9.35;2.20;;;14.80;76.60;;;;;;9181204;19;20018;-62
2022/02/23 11:40:07;;;;;;;8.50;1.80;;;14.90;77.00;;;;;;9179785;19;20042;-62
2022/02/23 11:43:32;;;;;;;10.05;1.50;;;14.90;76.80;;;;;;9182402;19;20113;-60
2022/02/23 11:47:01;;;;;;;8.60;1.85;;;14.90;75.60;;;;;;9183959;19;20018;-60
2022/02/23 11:50:09;;;;;;;4.95;1.35;;;14.90;75.40;;;;;;9181569;19;20018;-61
2022/02/23 11:53:15;;;;;;;8.23;2.13;;;14.80;75.80;;;;;;9184531;19;20044;-60
2022/02/23 11:56:20;;;;;;;12.98;2.28;;;14.80;75.50;;;;;;9178627;19;20480;-61
2022/02/23 11:59:51;;;;;;;10.57;1.95;;;14.70;75.80;;;;;;9181383;19;20452;-60
2022/02/23 12:03:01;;;;;;;9.15;2.15;;;14.60;75.20;;;;;;9181824;19;20020;-60
2022/02/23 12:06:09;;;;;;;7.93;2.10;;;14.50;74.80;;;;;;9183004;19;20026;-61
2022/02/23 12:09:14;;;;;;;13.18;2.80;;;14.40;75.00;;;;;;9178666;19;20022;-60
2022/02/23 12:12:31;;;;;;;13.30;3.03;;;14.40;75.20;;;;;;9179623;19;20019;-61
2022/02/23 12:15:40;;;;;;;13.02;2.72;;;14.30;74.70;;;;;;9180094;19;20014;-60
2022/02/23 12:18:49;;;;;;;8.48;2.45;;;14.30;74.80;;;;;;9179951;19;20019;-61
2022/02/23 12:21:56;;;;;;;21.85;3.78;;;14.30;74.80;;;;;;9182072;19;20541;-60
2022/02/23 12:25:04;;;;;;;11.65;3.08;;;14.20;74.60;;;;;;9181153;19;20460;-65
2022/02/23 12:28:09;;;;;;;10.15;2.60;;;14.10;74.70;;;;;;9168845;19;20022;-62
2022/02/23 12:31:19;;;;;;;14.77;3.33;;;14.10;74.70;;;;;;9167315;19;20014;-62
2022/02/23 12:34:25;;;;;;;8.43;2.55;;;14.10;74.70;;;;;;9172644;19;20602;-62
2022/02/23 12:37:51;;;;;;;15.13;3.38;;;14.00;74.70;;;;;;9173858;19;20018;-60
2022/02/23 12:40:58;;;;;;;11.57;3.65;;;14.10;74.70;;;;;;9171673;19;21024;-61
2022/02/23 12:44:08;;;;;;;12.75;2.75;;;14.10;74.30;;;;;;9176051;19;20732;-61
2022/02/23 12:47:17;;;;;;;13.90;3.60;;;14.10;74.20;;;;;;9171957;19;20709;-60
2022/02/23 12:50:28;;;;;;;11.20;3.17;;;14.00;74.10;;;;;;9169157;19;20041;-60
2022/02/23 12:53:34;;;;;;;16.13;2.97;;;14.00;74.10;;;;;;9174087;19;20527;-64
2022/02/23 12:56:42;;;;;;;12.27;2.55;;;14.00;74.20;;;;;;9171225;19;20030;-60
2022/02/23 12:59:47;;;;;;;11.07;2.58;;;14.00;73.90;;;;;;9179862;19;20002;-60
2022/02/23 13:02:55;;;;;;;12.57;2.85;;;13.90;73.70;;;;;;9176872;19;20480;-62
2022/02/23 13:06:00;;;;;;;14.20;2.70;;;13.80;73.50;;;;;;9176862;19;20014;-61
2022/02/23 13:09:07;;;;;;;12.48;3.15;;;13.70;73.60;;;;;;9179735;19;20401;-61
2022/02/23 13:12:15;;;;;;;13.25;2.42;;;13.60;73.40;;;;;;9180995;19;20462;-61
2022/02/23 13:15:20;;;;;;;10.45;2.40;;;13.50;73.50;;;;;;9179326;19;20368;-61
2022/02/23 13:18:28;;;;;;;15.95;2.50;;;13.40;73.30;;;;;;9179050;19;20019;-61
2022/02/23 13:21:42;;;;;;;13.48;2.45;;;13.30;73.20;;;;;;9177526;19;20037;-60
2022/02/23 13:24:48;;;;;;;10.13;2.03;;;13.20;73.10;;;;;;9177871;19;20022;-60
2022/02/23 13:27:54;;;;;;;7.28;1.70;;;13.10;73.30;;;;;;9175119;19;20015;-61
2022/02/23 13:31:04;;;;;;;7.20;2.30;;;13.00;73.10;;;;;;9180366;19;20357;-60
2022/02/23 13:34:35;;;;;;;11.23;2.83;;;12.90;73.10;;;;;;9175288;19;20373;-61
2022/02/23 13:37:45;;;;;;;9.30;2.20;;;12.80;72.80;;;;;;9176244;19;20031;-60
2022/02/23 13:40:50;;;;;;;10.35;1.83;;;12.70;73.10;;;;;;9177839;19;21174;-60
2022/02/23 13:43:55;;;;;;;11.20;2.30;;;12.60;73.10;;;;;;9177531;19;20033;-61
2022/02/23 13:47:03;;;;;;;12.38;2.50;;;12.50;73.00;;;;;;9179305;19;20464;-61
2022/02/23 13:50:20;;;;;;;14.27;2.65;;;12.50;73.00;;;;;;9177539;19;20917;-61
2022/02/23 13:53:32;;;;;;;15.68;2.78;;;12.40;73.00;;;;;;9176501;19;20026;-61
2022/02/23 13:56:37;;;;;;;7.85;2.33;;;12.30;73.20;;;;;;9173916;19;20030;-61
2022/02/23 13:59:42;;;;;;;10.80;1.83;;;12.30;73.20;;;;;;9175279;19;20043;-61
2022/02/23 14:02:51;;;;;;;13.15;2.20;;;12.20;73.20;;;;;;9178021;19;20019;-60
2022/02/23 14:06:02;;;;;;;14.70;2.92;;;12.20;73.10;;;;;;9180195;19;20468;-61
2022/02/23 14:09:10;;;;;;;18.42;3.00;;;12.20;73.10;;;;;;9176611;19;20452;-61
2022/02/23 14:12:15;;;;;;;9.02;2.13;;;12.10;73.20;;;;;;9175217;19;20038;-61
2022/02/23 14:15:22;;;;;;;14.18;2.53;;;12.10;73.20;;;;;;9175206;19;20023;-60
2022/02/23 14:18:29;;;;;;;7.25;1.65;;;12.10;73.10;;;;;;9179226;19;20464;-61
2022/02/23 14:21:37;;;;;;;6.68;1.88;;;12.10;72.90;;;;;;9172984;19;20019;-61
2022/02/23 14:24:42;;;;;;;11.35;2.17;;;12.10;72.80;;;;;;9175097;19;20063;-61
2022/02/23 14:27:48;;;;;;;15.73;2.10;;;12.00;72.80;;;;;;9166374;19;20015;-62
2022/02/23 14:31:20;;;;;;;11.27;2.25;;;12.00;72.80;;;;;;9173936;19;20026;-65
2022/02/23 14:34:27;;;;;;;15.35;2.40;;;12.00;72.50;;;;;;9184436;19;20018;-64
2022/02/23 14:37:37;;;;;;;13.65;2.75;;;12.00;72.80;;;;;;9183741;19;20034;-63
2022/02/23 14:40:42;;;;;;;9.18;1.98;;;12.00;72.70;;;;;;9182852;19;20414;-63
2022/02/23 14:43:48;;;;;;;9.05;1.98;;;12.00;72.70;;;;;;9182274;19;20014;-61
2022/02/23 14:46:53;;;;;;;9.57;2.03;;;12.00;72.70;;;;;;9184327;19;20465;-63
2022/02/23 14:49:59;;;;;;;14.52;2.45;;;12.00;72.60;;;;;;9185852;19;20014;-62
2022/02/23 14:53:06;;;;;;;9.80;1.98;;;12.00;72.60;;;;;;9187035;19;20510;-62
2022/02/23 14:56:11;;;;;;;8.23;1.92;;;12.00;72.50;;;;;;9187467;19;20014;-62
2022/02/23 14:59:16;;;;;;;12.45;2.33;;;12.00;72.60;;;;;;9181380;19;20055;-62
2022/02/23 15:02:21;;;;;;;9.63;1.95;;;12.00;72.50;;;;;;9181252;19;20034;-63
2022/02/23 15:05:26;;;;;;;14.43;2.35;;;12.00;72.50;;;;;;9183470;19;20010;-63
2022/02/23 15:08:34;;;;;;;15.65;3.20;;;12.00;72.50;;;;;;9184761;19;20086;-62
2022/02/23 15:11:45;;;;;;;10.45;1.95;;;12.00;72.40;;;;;;9186891;19;20014;-64
2022/02/23 15:15:05;;;;;;;7.05;1.88;;;12.00;72.50;;;;;;9181347;19;20033;-62
2022/02/23 15:18:10;;;;;;;14.05;1.85;;;12.00;72.40;;;;;;9183700;19;20468;-62
2022/02/23 15:21:15;;;;;;;10.93;2.03;;;11.90;72.30;;;;;;9182447;19;20027;-63
2022/02/23 15:24:23;;;;;;;9.35;1.90;;;11.90;72.30;;;;;;9182893;19;20022;-63
2022/02/23 15:27:28;;;;;;;12.15;2.00;;;11.90;72.20;;;;;;9180052;19;20023;-62
2022/02/23 15:30:34;;;;;;;10.60;2.33;;;11.90;72.20;;;;;;9180493;19;20014;-64
2022/02/23 15:33:40;;;;;;;14.05;2.13;;;11.90;72.10;;;;;;9180526;19;20475;-63
2022/02/23 15:36:45;;;;;;;8.10;1.50;;;11.90;72.10;;;;;;9181139;19;20050;-63
2022/02/23 15:39:52;;;;;;;9.75;2.22;;;11.80;72.00;;;;;;9182707;19;20026;-63
2022/02/23 15:42:57;;;;;;;10.75;2.55;;;11.90;71.90;;;;;;9181578;19;20019;-64
2022/02/23 15:46:02;;;;;;;6.32;1.85;;;11.80;72.00;;;;;;9176748;19;20022;-62
2022/02/23 15:49:07;;;;;;;11.32;1.80;;;11.80;71.90;;;;;;9180702;19;20387;-62
2022/02/23 15:52:12;;;;;;;7.15;1.95;;;11.80;71.90;;;;;;9182660;19;20019;-62
2022/02/23 15:55:20;;;;;;;11.38;2.10;;;11.70;71.80;;;;;;9183852;19;20481;-63
2022/02/23 15:58:25;;;;;;;9.70;3.17;;;11.70;71.70;;;;;;9183948;19;20021;-62
2022/02/23 16:01:32;;;;;;;8.30;2.40;;;11.70;71.80;;;;;;9180188;19;20011;-62
2022/02/23 16:04:37;;;;;;;12.50;2.45;;;11.60;71.70;;;;;;9181742;19;20085;-63
2022/02/23 16:07:42;;;;;;;8.50;1.83;;;11.60;71.70;;;;;;9180958;19;20105;-64
2022/02/23 16:10:50;;;;;;;9.95;2.20;;;11.60;71.70;;;;;;9170393;19;21263;-63
2022/02/23 16:13:55;;;;;;;11.27;2.03;;;11.60;71.70;;;;;;9169379;19;20015;-63
2022/02/23 16:17:02;;;;;;;12.80;2.10;;;11.50;71.60;;;;;;9172920;19;20014;-62